KISO

Kinston Regional Jetport at Stallings Field Airport

Kinston, North Carolina, USA
METAR KISO 191856Z 35007KT 10SM SCT048 BKN060 31/19 A2994
Observed Flight Rules
Sep-19 @ 18:56 UTC (17 minutes ago) Visual Flight Rules
Wind Visibility Clouds
350° at 7 knots 10 miles
  • Scattered at 4,800' AGL
  • Broken at 6,000' AGL
Temperatures Readings
Current 31°C / 88°F
Dewpoint 19°C / 66°F
Humidity 49%
Altimeter 29.94" Hg
Pressure 1014 hPa
Elevation 29
METAR KISO 191856Z 35007KT 10SM SCT048 BKN060 31/19 A2994
Observed Flight Rules
Sep-19 @ 18:56 UTC
(17 minutes ago)
VFR
Wind Visibility
350° at 7 knots 10 miles
Clouds
  • Scattered at 4,800' AGL
  • Broken at 6,000' AGL
Temperature Dewpoint
31°C / 88°F 19°C / 66°F
Humidity Altimeter Pressure
49% 29.94" Hg 1014 hPa